KELD/ELD METAR and TAF weather

Enter ICAO airport designator
Station Type Date Time Source
KELD METAR 2021/09/25 11:53 UTC NOAA

KELD 251153Z AUTO 00000KT 10SM CLR 12/11 A3013 RMK AO2 SLP200 T01170106 10150 20111 53014


Station Type Date Time Source
KELD Decoded METAR 2021/09/25 11:53 UTC NOAA

SOUTH ARKANSAS REGIONAL, AR, United States (KELD) 33-13N 092-49W 81M
Sep 25, 2021 - 07:53 AM EDT / 2021.09.25 1153 UTC
Wind: Calm:0
Visibility: 10 mile(s):0
Sky conditions: clear
Temperature: 53.1 F (11.7 C)
Dew Point: 51.1 F (10.6 C)
Relative Humidity: 92%
Pressure (altimeter): 30.13 in. Hg (1020 hPa)
Pressure tendency: 0.04 inches (1.4 hPa) higher than three hours ago
ob: KELD 251153Z AUTO 00000KT 10SM CLR 12/11 A3013 RMK AO2 SLP200 T01170106 10150 20111 53014
cycle: 12

Station Type Date Time Source
KELD TAF 2021/09/25 12:22 UTC NOAA

TAF KELD 251120Z 2512/2612 VRB04KT P6SM SKC
FM251500 23004KT P6SM SKC
FM251800 26004KT P6SM SKC
FM260100 VRB03KT P6SM SKC
FM260600 00000KT P6SM SKC

Example: see airport list